createdAt,value
2019-03-08T00:02:09.406Z,7.34
2019-03-08T00:04:37.727Z,7.31
2019-03-08T00:07:06.090Z,7.31
2019-03-08T00:09:34.330Z,7.31
2019-03-08T00:12:02.568Z,7.30
2019-03-08T00:14:31.147Z,7.29
2019-03-08T00:16:59.386Z,7.33
2019-03-08T00:19:27.626Z,7.30
2019-03-08T00:21:56.022Z,7.31
2019-03-08T00:24:24.246Z,7.32
2019-03-08T00:26:52.489Z,7.32
2019-03-08T00:29:20.962Z,7.37
2019-03-08T00:31:49.218Z,7.39
2019-03-08T00:34:17.460Z,7.39
2019-03-08T00:36:45.731Z,7.42
2019-03-08T00:39:14.326Z,7.41
2019-03-08T00:41:42.569Z,7.40
2019-03-08T00:44:10.988Z,7.36
2019-03-08T00:46:39.257Z,7.37
2019-03-08T00:49:08.122Z,7.37
2019-03-08T00:51:36.562Z,7.37
2019-03-08T00:54:04.811Z,7.42
2019-03-08T00:56:33.132Z,7.41
2019-03-08T00:59:01.770Z,7.40
2019-03-08T01:01:30.847Z,7.39
2019-03-08T01:03:59.151Z,7.34
2019-03-08T01:06:27.435Z,7.33
2019-03-08T01:08:57.342Z,7.32
2019-03-08T01:11:25.579Z,7.30
2019-03-08T01:13:54.144Z,7.29
2019-03-08T01:16:22.382Z,7.26
2019-03-08T01:18:50.641Z,7.29
2019-03-08T01:21:18.886Z,7.23
2019-03-08T01:23:47.313Z,7.22
2019-03-08T01:26:15.541Z,7.19
2019-03-08T01:28:44.302Z,7.19
2019-03-08T01:31:12.668Z,7.18
2019-03-08T01:33:40.941Z,7.15
2019-03-08T01:36:09.222Z,7.14
2019-03-08T01:38:37.526Z,7.15
2019-03-08T01:41:05.755Z,7.10
2019-03-08T01:43:34.459Z,7.13
2019-03-08T01:46:02.708Z,7.10
2019-03-08T01:48:30.978Z,7.12
2019-03-08T01:50:59.256Z,7.09
2019-03-08T01:53:27.497Z,7.08
2019-03-08T01:55:55.909Z,7.03
2019-03-08T01:58:24.423Z,7.03
2019-03-08T02:00:52.656Z,7.00
2019-03-08T02:03:20.948Z,7.02
2019-03-08T02:05:49.190Z,7.02
2019-03-08T02:08:17.469Z,7.01
2019-03-08T02:10:45.772Z,7.03
2019-03-08T02:13:14.500Z,7.01
2019-03-08T02:15:43.458Z,7.00
2019-03-08T02:18:11.860Z,7.02
2019-03-08T02:20:40.176Z,7.01
2019-03-08T02:23:08.470Z,7.03
2019-03-08T02:25:36.738Z,7.02
2019-03-08T02:28:05.310Z,7.07
2019-03-08T02:30:33.557Z,7.06
2019-03-08T02:33:01.794Z,7.10
2019-03-08T02:35:30.055Z,7.12
2019-03-08T02:37:58.330Z,7.13
2019-03-08T02:40:34.072Z,7.18
2019-03-08T02:43:04.358Z,7.20
2019-03-08T02:45:32.655Z,7.22
2019-03-08T02:48:00.907Z,7.20
2019-03-08T02:50:29.149Z,7.25
2019-03-08T02:52:57.760Z,7.28
2019-03-08T02:55:26.087Z,7.29
2019-03-08T02:57:54.373Z,7.36
2019-03-08T03:00:23.201Z,7.37
2019-03-08T03:02:51.470Z,7.37
2019-03-08T03:05:19.723Z,7.35
2019-03-08T03:07:48.026Z,7.33
2019-03-08T03:10:16.282Z,7.29
2019-03-08T03:12:44.673Z,7.31
2019-03-08T03:15:14.496Z,7.32
2019-03-08T03:17:42.759Z,7.33
2019-03-08T03:20:12.807Z,7.37
2019-03-08T03:22:41.051Z,7.37
2019-03-08T03:25:11.026Z,7.37
2019-03-08T03:27:39.349Z,7.35
2019-03-08T03:30:18.968Z,7.36
2019-03-08T03:32:47.222Z,7.37
2019-03-08T03:35:15.460Z,7.39
2019-03-08T03:37:43.726Z,7.39
2019-03-08T03:40:17.170Z,7.37
2019-03-08T03:42:45.408Z,7.35
2019-03-08T03:45:15.488Z,7.34
2019-03-08T03:47:43.762Z,7.33
2019-03-08T03:50:12.862Z,7.28
2019-03-08T03:52:41.294Z,7.28
2019-03-08T03:55:17.395Z,7.23
2019-03-08T03:57:45.654Z,7.23
2019-03-08T04:00:19.701Z,7.26
2019-03-08T04:02:48.818Z,7.27
2019-03-08T04:05:17.081Z,7.27
2019-03-08T04:07:45.334Z,7.27
2019-03-08T04:10:15.064Z,7.29
2019-03-08T04:12:43.300Z,7.25
2019-03-08T04:15:14.975Z,7.25
2019-03-08T04:17:43.293Z,7.25
2019-03-08T04:20:15.738Z,7.26
2019-03-08T04:22:44.015Z,7.29
2019-03-08T04:25:13.294Z,7.33
2019-03-08T04:27:41.934Z,7.31
2019-03-08T04:30:20.311Z,7.29
2019-03-08T04:32:48.594Z,7.26
2019-03-08T04:35:18.486Z,7.28
2019-03-08T04:37:46.723Z,7.28
2019-03-08T04:40:15.138Z,7.29
2019-03-08T04:42:43.391Z,7.26
2019-03-08T04:45:13.240Z,7.20
2019-03-08T04:47:41.511Z,7.22
2019-03-08T04:50:13.024Z,7.18
2019-03-08T04:52:41.305Z,7.13
2019-03-08T04:55:16.686Z,7.12
2019-03-08T04:57:44.633Z,7.08
2019-03-08T05:00:17.325Z,7.08
2019-03-08T05:02:45.587Z,7.05
2019-03-08T05:05:13.860Z,7.02
2019-03-08T05:07:42.128Z,7.02
2019-03-08T05:10:15.120Z,7.00
2019-03-08T05:12:43.394Z,6.90
2019-03-08T05:15:11.635Z,6.86
2019-03-08T05:17:39.947Z,6.83
2019-03-08T05:20:09.660Z,6.83
2019-03-08T05:22:37.950Z,6.88
2019-03-08T05:25:11.108Z,6.87
2019-03-08T05:27:39.355Z,6.88
2019-03-08T05:30:10.879Z,6.86
2019-03-08T05:32:39.216Z,6.87
2019-03-08T05:35:10.812Z,6.89
2019-03-08T05:37:39.065Z,6.93
2019-03-08T05:40:09.923Z,6.91
2019-03-08T05:42:38.191Z,6.88
2019-03-08T05:45:08.386Z,6.89
2019-03-08T05:47:36.737Z,6.93
2019-03-08T05:50:07.612Z,6.88
2019-03-08T05:52:35.875Z,6.89
2019-03-08T05:55:05.440Z,6.88
2019-03-08T05:57:33.670Z,6.84
2019-03-08T06:00:01.943Z,6.82
2019-03-08T06:02:30.261Z,6.84
2019-03-08T06:05:01.297Z,6.82
2019-03-08T06:07:29.559Z,6.84
2019-03-08T06:09:58.041Z,6.80
2019-03-08T06:12:26.309Z,6.80
2019-03-08T06:14:54.602Z,6.83
2019-03-08T06:17:22.902Z,6.80
2019-03-08T06:19:51.207Z,6.80
2019-03-08T06:22:19.480Z,6.75
2019-03-08T06:24:47.810Z,6.74
2019-03-08T06:27:16.058Z,6.72
2019-03-08T06:29:44.364Z,6.74
2019-03-08T06:32:12.614Z,6.76
2019-03-08T06:34:40.863Z,6.77
2019-03-08T06:37:09.183Z,6.74
2019-03-08T06:39:37.448Z,6.75
2019-03-08T06:42:05.877Z,6.74
2019-03-08T06:44:34.146Z,6.73
2019-03-08T06:47:02.403Z,6.68
2019-03-08T06:49:30.798Z,6.72
2019-03-08T06:52:00.890Z,6.71
2019-03-08T06:54:29.061Z,6.72
2019-03-08T06:56:59.176Z,6.73
2019-03-08T06:59:35.311Z,6.73
2019-03-08T07:02:03.611Z,6.70
2019-03-08T07:04:31.865Z,6.69
2019-03-08T07:07:00.115Z,6.69
2019-03-08T07:09:28.382Z,6.78
2019-03-08T07:11:58.068Z,6.82
2019-03-08T07:14:26.284Z,6.92
2019-03-08T07:16:54.596Z,6.91
2019-03-08T07:19:22.902Z,6.91
2019-03-08T07:21:52.841Z,6.95
2019-03-08T07:24:22.743Z,6.96
2019-03-08T07:27:08.741Z,6.99
2019-03-08T07:29:44.414Z,6.95
2019-03-08T07:32:17.773Z,6.95
2019-03-08T07:35:04.151Z,6.93
2019-03-08T07:37:40.338Z,6.94
2019-03-08T07:40:13.623Z,6.85
2019-03-08T07:42:59.384Z,6.78
2019-03-08T07:45:29.387Z,6.78
2019-03-08T07:47:59.273Z,6.76
2019-03-08T07:50:38.339Z,6.70
2019-03-08T07:53:25.985Z,6.66
2019-03-08T07:55:55.953Z,6.70
2019-03-08T07:58:32.010Z,6.80
2019-03-08T08:01:04.784Z,6.81
2019-03-08T08:03:49.685Z,6.87
2019-03-08T08:06:19.582Z,6.89
2019-03-08T08:09:04.193Z,6.88
2019-03-08T08:11:36.784Z,6.86
2019-03-08T08:14:09.679Z,6.89
2019-03-08T08:16:58.031Z,6.94
2019-03-08T08:19:27.936Z,6.95
2019-03-08T08:21:57.910Z,6.94
2019-03-08T08:24:30.501Z,6.96
2019-03-08T08:27:12.250Z,6.98
2019-03-08T08:29:59.938Z,6.93
2019-03-08T08:32:29.906Z,6.93
2019-03-08T08:35:02.763Z,6.94
2019-03-08T08:37:35.848Z,6.91
2019-03-08T08:40:14.475Z,6.97
2019-03-08T08:42:53.072Z,7.07
2019-03-08T08:45:34.885Z,7.20
2019-03-08T08:48:10.552Z,7.32
2019-03-08T08:50:52.238Z,7.39
2019-03-08T08:53:40.330Z,7.46
2019-03-08T08:56:10.316Z,7.54
2019-03-08T08:58:42.967Z,7.63
2019-03-08T09:01:24.714Z,7.71
2019-03-08T09:03:54.599Z,7.81
2019-03-08T09:06:40.853Z,7.90
2019-03-08T09:09:19.411Z,7.88
2019-03-08T09:11:55.373Z,7.85
2019-03-08T09:14:31.207Z,7.84
2019-03-08T09:17:01.103Z,7.85
2019-03-08T09:19:46.216Z,7.90
2019-03-08T09:22:21.657Z,7.91
2019-03-08T09:25:07.870Z,7.93
2019-03-08T09:27:40.288Z,7.93
2019-03-08T09:30:22.620Z,7.91
2019-03-08T09:32:59.320Z,7.94
2019-03-08T09:35:32.996Z,8.01
2019-03-08T09:38:12.706Z,8.07
2019-03-08T09:40:57.816Z,8.18
2019-03-08T09:43:27.714Z,8.28
2019-03-08T09:46:09.555Z,8.34
2019-03-08T09:48:51.617Z,8.37
2019-03-08T09:51:37.949Z,8.39
2019-03-08T09:54:20.080Z,8.47
2019-03-08T09:56:49.995Z,8.54
2019-03-08T09:59:37.908Z,8.62
2019-03-08T10:02:08.110Z,8.62
2019-03-08T10:04:43.692Z,8.64
2019-03-08T10:07:25.643Z,8.62
2019-03-08T10:10:01.569Z,8.66
2019-03-08T10:12:47.322Z,8.85
2019-03-08T10:15:32.449Z,9.05
2019-03-08T10:18:20.247Z,9.21
2019-03-08T10:20:55.847Z,9.36
2019-03-08T10:23:37.843Z,9.49
2019-03-08T10:26:22.947Z,9.62
2019-03-08T10:29:01.775Z,9.68
2019-03-08T10:31:31.712Z,9.61
2019-03-08T10:34:04.307Z,9.43
2019-03-08T10:36:49.259Z,9.41
2019-03-08T10:39:19.144Z,9.23
2019-03-08T10:42:01.136Z,9.16
2019-03-08T10:44:33.825Z,9.10
2019-03-08T10:47:22.122Z,9.04
2019-03-08T10:49:55.124Z,8.98
2019-03-08T10:52:32.316Z,8.88
2019-03-08T10:55:06.451Z,8.86
2019-03-08T10:57:42.132Z,8.90
2019-03-08T11:00:28.385Z,9.20
2019-03-08T11:02:58.298Z,9.43
2019-03-08T11:05:39.477Z,9.62
2019-03-08T11:08:29.675Z,9.71
2019-03-08T11:11:06.049Z,9.72
2019-03-08T11:13:43.046Z,9.62
2019-03-08T11:16:24.958Z,9.58
2019-03-08T11:18:54.685Z,9.54
2019-03-08T11:21:33.760Z,9.55
2019-03-08T11:24:20.195Z,9.54
2019-03-08T11:27:06.484Z,9.56
2019-03-08T11:29:36.407Z,9.54
2019-03-08T11:32:22.787Z,9.48
2019-03-08T11:35:03.349Z,9.41
2019-03-08T11:37:42.199Z,9.46
2019-03-08T11:40:14.227Z,9.51
2019-03-08T11:42:46.653Z,9.56
2019-03-08T11:45:16.542Z,9.56
2019-03-08T11:48:01.822Z,9.62
2019-03-08T11:50:41.196Z,9.68
2019-03-08T11:53:11.104Z,9.70
2019-03-08T11:55:46.605Z,9.74
2019-03-08T11:58:16.520Z,9.67
2019-03-08T12:00:53.236Z,9.58
2019-03-08T12:03:23.327Z,9.57
2019-03-08T12:05:53.248Z,9.48
2019-03-08T12:08:38.078Z,9.45
2019-03-08T12:11:26.158Z,9.50
2019-03-08T12:13:58.389Z,9.60
2019-03-08T12:16:34.038Z,9.63
2019-03-08T12:19:03.942Z,9.68
2019-03-08T12:21:33.823Z,9.71
2019-03-08T12:24:09.823Z,9.81
2019-03-08T12:26:42.199Z,9.84
2019-03-08T12:29:12.088Z,9.79
2019-03-08T12:31:42.125Z,9.72
2019-03-08T12:34:12.047Z,9.64
2019-03-08T12:36:41.992Z,9.72
2019-03-08T12:39:11.884Z,9.72
2019-03-08T12:41:44.871Z,9.75
2019-03-08T12:44:29.962Z,9.75
2019-03-08T12:47:17.950Z,9.72
2019-03-08T12:49:47.861Z,9.72
2019-03-08T12:52:17.955Z,9.74
2019-03-08T12:54:47.969Z,9.76
2019-03-08T12:57:32.226Z,9.84
2019-03-08T13:00:14.402Z,9.95
2019-03-08T13:02:47.014Z,10.16
2019-03-08T13:05:32.891Z,10.29
2019-03-08T13:08:02.780Z,10.47
2019-03-08T13:10:31.043Z,10.65
2019-03-08T13:12:59.895Z,10.84
2019-03-08T13:15:28.155Z,10.91
2019-03-08T13:17:56.460Z,10.86
2019-03-08T13:20:24.748Z,10.73
2019-03-08T13:22:52.996Z,10.71
2019-03-08T13:25:22.221Z,10.68
2019-03-08T13:27:50.496Z,10.50
2019-03-08T13:30:23.238Z,10.43
2019-03-08T13:32:51.585Z,10.33
2019-03-08T13:35:20.422Z,10.26
2019-03-08T13:37:48.659Z,10.22
2019-03-08T13:40:17.044Z,10.18
2019-03-08T13:42:45.394Z,10.21
2019-03-08T13:45:19.015Z,10.20
2019-03-08T13:47:47.328Z,10.26
2019-03-08T13:50:15.751Z,10.33
2019-03-08T13:52:44.351Z,10.51
2019-03-08T13:55:14.990Z,10.73
2019-03-08T13:57:43.305Z,10.91
2019-03-08T14:00:19.891Z,11.00
2019-03-08T14:02:48.192Z,10.84
2019-03-08T14:05:16.524Z,10.74
2019-03-08T14:07:44.757Z,10.69
2019-03-08T14:10:17.770Z,10.59
2019-03-08T14:12:46.042Z,10.38
2019-03-08T14:15:17.878Z,10.35
2019-03-08T14:17:46.136Z,10.23
2019-03-08T14:20:25.297Z,10.18
2019-03-08T14:22:53.673Z,10.17
2019-03-08T14:25:21.931Z,10.17
2019-03-08T14:27:50.167Z,10.18
2019-03-08T14:30:32.200Z,10.32
2019-03-08T14:33:01.539Z,10.45
2019-03-08T14:35:30.998Z,10.51
2019-03-08T14:37:59.516Z,10.42
2019-03-08T14:40:47.470Z,10.30
2019-03-08T14:43:20.276Z,10.23
2019-03-08T14:46:06.395Z,10.12
2019-03-08T14:48:34.776Z,10.02
2019-03-08T14:51:03.359Z,9.75
2019-03-08T14:53:32.757Z,9.67
2019-03-08T14:56:01.418Z,9.63
2019-03-08T14:58:32.528Z,9.61
2019-03-08T15:01:02.131Z,9.67
2019-03-08T15:03:29.883Z,9.73
2019-03-08T15:05:59.346Z,9.75
2019-03-08T15:08:27.727Z,9.63
2019-03-08T15:10:56.122Z,9.71
2019-03-08T15:13:25.815Z,9.82
2019-03-08T15:15:57.896Z,9.81
2019-03-08T15:18:25.836Z,9.84
2019-03-08T15:20:54.779Z,9.83
2019-03-08T15:23:24.188Z,9.87
2019-03-08T15:25:52.434Z,9.85
2019-03-08T15:28:20.702Z,9.76
2019-03-08T15:30:51.889Z,9.77
2019-03-08T15:33:22.955Z,9.75
2019-03-08T15:35:51.181Z,9.64
2019-03-08T15:38:19.456Z,9.57
2019-03-08T15:40:48.875Z,9.57
2019-03-08T15:43:17.263Z,9.47
2019-03-08T15:45:46.179Z,9.39
2019-03-08T15:48:15.851Z,9.34
2019-03-08T15:50:46.679Z,9.25
2019-03-08T15:53:15.275Z,9.24
2019-03-08T15:55:52.555Z,9.26
2019-03-08T15:58:13.736Z,9.22
2019-03-08T16:00:42.039Z,9.24
2019-03-08T16:03:10.306Z,9.27
2019-03-08T16:05:38.586Z,9.30
2019-03-08T16:08:06.898Z,9.29
2019-03-08T16:10:35.385Z,9.28
2019-03-08T16:13:03.616Z,9.23
2019-03-08T16:15:31.867Z,9.18
2019-03-08T16:18:00.129Z,9.15
2019-03-08T16:20:28.484Z,9.12
2019-03-08T16:22:56.970Z,9.04
2019-03-08T16:25:26.081Z,9.04
2019-03-08T16:27:54.350Z,8.97
2019-03-08T16:30:33.335Z,8.96
2019-03-08T16:33:12.539Z,8.90
2019-03-08T16:35:59.247Z,8.91
2019-03-08T16:38:32.195Z,8.89
2019-03-08T16:41:08.208Z,8.88
2019-03-08T16:43:38.212Z,8.86
2019-03-08T16:46:25.112Z,8.83
2019-03-08T16:49:14.902Z,8.78
2019-03-08T16:51:55.043Z,8.78
2019-03-08T16:54:30.344Z,8.72
2019-03-08T16:57:00.477Z,8.68
2019-03-08T16:59:36.250Z,8.66
2019-03-08T17:02:12.375Z,8.61
2019-03-08T17:04:42.355Z,8.58
2019-03-08T17:07:15.224Z,8.56
2019-03-08T17:09:45.187Z,8.56
2019-03-08T17:12:27.350Z,8.58
2019-03-08T17:15:13.463Z,8.56
2019-03-08T17:17:43.414Z,8.55
2019-03-08T17:20:32.003Z,8.50
2019-03-08T17:23:01.892Z,8.49
2019-03-08T17:25:37.867Z,8.45
2019-03-08T17:28:16.825Z,8.40
2019-03-08T17:30:46.709Z,8.37
2019-03-08T17:33:16.742Z,8.35
2019-03-08T17:36:02.837Z,8.34
2019-03-08T17:38:32.867Z,8.33
2019-03-08T17:41:04.561Z,8.30
2019-03-08T17:43:43.587Z,8.30
2019-03-08T17:46:29.809Z,8.27
2019-03-08T17:49:05.876Z,8.26
2019-03-08T17:51:38.567Z,8.22
2019-03-08T17:54:11.404Z,8.18
2019-03-08T17:56:57.144Z,8.14
2019-03-08T17:59:27.044Z,8.11
2019-03-08T18:01:56.960Z,8.09
2019-03-08T18:04:32.676Z,8.06
2019-03-08T18:07:02.815Z,8.06
2019-03-08T18:09:35.668Z,8.05
2019-03-08T18:12:11.691Z,8.01
2019-03-08T18:14:41.584Z,7.98
2019-03-08T18:17:14.532Z,7.97
2019-03-08T18:19:44.470Z,7.94
2019-03-08T18:22:32.876Z,7.92
2019-03-08T18:25:08.494Z,7.91
2019-03-08T18:27:38.389Z,7.89
2019-03-08T18:30:28.157Z,7.84
2019-03-08T18:33:09.983Z,7.84
2019-03-08T18:35:55.771Z,7.81
2019-03-08T18:38:31.315Z,7.76
2019-03-08T18:41:04.001Z,7.73
2019-03-08T18:43:36.576Z,7.70
2019-03-08T18:46:18.755Z,7.69
2019-03-08T18:48:55.234Z,7.68
2019-03-08T18:51:40.328Z,7.65
2019-03-08T18:54:10.208Z,7.61
2019-03-08T18:56:43.380Z,7.59
2019-03-08T18:59:16.270Z,7.58
2019-03-08T19:01:54.888Z,7.54
2019-03-08T19:04:30.624Z,7.47
2019-03-08T19:07:00.591Z,7.44
2019-03-08T19:09:36.300Z,7.39
2019-03-08T19:12:07.137Z,7.33
2019-03-08T19:14:49.329Z,7.26
2019-03-08T19:17:34.279Z,7.23
2019-03-08T19:20:20.391Z,7.20
2019-03-08T19:22:59.365Z,7.18
2019-03-08T19:25:32.410Z,7.11
2019-03-08T19:28:20.625Z,7.06
2019-03-08T19:30:59.668Z,7.06
2019-03-08T19:33:46.217Z,7.05
2019-03-08T19:36:34.234Z,7.02
2019-03-08T19:39:04.137Z,7.01
2019-03-08T19:41:36.483Z,6.98
2019-03-08T19:44:06.403Z,6.94
2019-03-08T19:46:51.062Z,6.92
2019-03-08T19:49:29.754Z,6.88
2019-03-08T19:51:59.752Z,6.87
2019-03-08T19:54:29.773Z,6.85
2019-03-08T19:57:05.657Z,6.83
2019-03-08T19:59:35.579Z,6.79
2019-03-08T20:02:14.508Z,6.79
2019-03-08T20:04:56.126Z,6.78
2019-03-08T20:07:41.353Z,6.78
2019-03-08T20:10:28.103Z,6.75
2019-03-08T20:13:00.940Z,6.73
2019-03-08T20:15:30.827Z,6.73
2019-03-08T20:18:03.370Z,6.71
2019-03-08T20:20:35.755Z,6.71
2019-03-08T20:23:17.730Z,6.66
2019-03-08T20:25:53.273Z,6.64
2019-03-08T20:28:23.200Z,6.62
2019-03-08T20:31:09.323Z,6.59
2019-03-08T20:33:39.270Z,6.60
2019-03-08T20:36:27.562Z,6.58
2019-03-08T20:39:15.966Z,6.56
2019-03-08T20:41:45.982Z,6.55
2019-03-08T20:44:15.891Z,6.53
2019-03-08T20:46:45.785Z,6.54
2019-03-08T20:49:14.363Z,6.54
2019-03-08T20:51:42.615Z,6.56
2019-03-08T20:54:11.001Z,6.57
2019-03-08T20:56:39.432Z,6.57
2019-03-08T20:59:08.073Z,6.59
2019-03-08T21:01:36.415Z,6.61
2019-03-08T21:04:04.931Z,6.63
2019-03-08T21:06:33.574Z,6.65
2019-03-08T21:09:01.895Z,6.67
2019-03-08T21:11:30.206Z,6.71
2019-03-08T21:13:58.614Z,6.73
2019-03-08T21:16:26.836Z,6.75
2019-03-08T21:18:55.251Z,6.77
2019-03-08T21:21:23.681Z,6.74
2019-03-08T21:23:51.930Z,6.75
2019-03-08T21:26:20.277Z,6.78
2019-03-08T21:28:48.701Z,6.79
2019-03-08T21:31:17.088Z,6.76
2019-03-08T21:33:45.356Z,6.80
2019-03-08T21:36:13.645Z,6.82
2019-03-08T21:38:41.891Z,6.83
2019-03-08T21:41:10.361Z,6.86
2019-03-08T21:43:38.648Z,6.87
2019-03-08T21:46:07.572Z,6.86
2019-03-08T21:48:36.133Z,6.89
2019-03-08T21:51:04.415Z,6.97
2019-03-08T21:53:32.658Z,6.98
2019-03-08T21:56:02.330Z,7.00
2019-03-08T21:58:30.887Z,7.03
2019-03-08T22:00:59.138Z,7.05
2019-03-08T22:03:27.418Z,7.08
2019-03-08T22:05:55.768Z,7.11
2019-03-08T22:08:24.264Z,7.13
2019-03-08T22:10:54.150Z,7.15
2019-03-08T22:13:22.442Z,7.17
2019-03-08T22:15:50.835Z,7.20
2019-03-08T22:18:19.079Z,7.22
2019-03-08T22:20:47.710Z,7.23
2019-03-08T22:23:16.028Z,7.28
2019-03-08T22:25:44.371Z,7.30
2019-03-08T22:28:12.668Z,7.29
2019-03-08T22:30:41.033Z,7.31
2019-03-08T22:33:09.268Z,7.33
2019-03-08T22:35:37.751Z,7.36
2019-03-08T22:38:06.046Z,7.37
2019-03-08T22:40:34.399Z,7.39
2019-03-08T22:43:02.693Z,7.40
2019-03-08T22:45:30.969Z,7.41
2019-03-08T22:47:59.238Z,7.46
2019-03-08T22:50:27.614Z,7.40
2019-03-08T22:52:55.857Z,7.38
2019-03-08T22:55:24.178Z,7.38
2019-03-08T22:57:52.633Z,7.35
2019-03-08T23:00:54.844Z,7.31
2019-03-08T23:03:24.532Z,7.34
2019-03-08T23:05:52.898Z,7.28
2019-03-08T23:08:21.141Z,7.23
2019-03-08T23:10:49.547Z,7.23
2019-03-08T23:13:17.846Z,7.22
2019-03-08T23:15:46.168Z,7.20
2019-03-08T23:18:15.178Z,7.18
2019-03-08T23:20:43.606Z,7.15
2019-03-08T23:23:12.094Z,7.17
2019-03-08T23:25:43.531Z,7.13
2019-03-08T23:28:25.480Z,7.13
2019-03-08T23:30:55.368Z,7.10
2019-03-08T23:33:23.913Z,7.10
2019-03-08T23:35:52.349Z,7.06
2019-03-08T23:38:20.664Z,7.09
2019-03-08T23:40:48.901Z,7.05
2019-03-08T23:43:17.187Z,7.07
2019-03-08T23:45:45.592Z,7.03
2019-03-08T23:48:13.840Z,7.03
2019-03-08T23:50:42.117Z,7.03
2019-03-08T23:53:10.421Z,7.01
2019-03-08T23:55:38.655Z,7.00
2019-03-08T23:58:06.994Z,6.95
